Main page
METAR-TAF:

METAR-TAF

Airports :

Tulln an der Donau, Austria

Military airbase

latitude: 48-19N, longitude: 016-07E, elevation: 175 m

METAR: missing

Time: 22:41 (20:41 UTC)

Forecast

The report was made 9 hours and 26 minutes ago, at 11:15 UTC
Forecast valid from 27 at 12 UTC to 27 at 21 UTC
Wind 6 kt from the Southwest
Visibility 10 km or more
Few clouds at a height of 17000 ft
Scattered clouds at a height of 30000 ft
Temporary
from 27 at 12 UTC to 27 at 18 UTC
Wind 10 kt from the South/Southeast
Few clouds at a height of 5000 ft

TAF: LOXT 271115Z 2712/2721 22006KT 9999 FEW170 SCT300 TEMPO 2712/2718 16010KT FEW050

Weather observations and forecasts of more than 4000 airports (METAR and TAF reports).

The available stations are represented by yellow and red dots on the map.

Hover mouse over dot to see the name of the station.

Then click to see weather observations and forecasts.

To change the map : click on the green buttons with a black cross to zoom in, on the green button with a dash to zoom out, or on the green arrows for adjacent maps.


METAR-TAF: